createdAt,value
2023-01-09T00:01:10.435Z,98530.47
2023-01-09T00:03:39.164Z,98540.59
2023-01-09T00:06:06.845Z,98556.41
2023-01-09T00:08:34.059Z,98559.66
2023-01-09T00:11:01.307Z,98565.75
2023-01-09T00:13:28.692Z,98562.09
2023-01-09T00:15:56.043Z,98564.84
2023-01-09T00:18:23.328Z,98566.69
2023-01-09T00:20:52.114Z,98563.59
2023-01-09T00:23:19.461Z,98567.63
2023-01-09T00:25:46.635Z,98565.03
2023-01-09T00:28:13.962Z,98568.25
2023-01-09T00:30:41.159Z,98562.28
2023-01-09T00:33:08.627Z,98547.03
2023-01-09T00:35:36.047Z,98549.81
2023-01-09T00:38:04.677Z,98553.78
2023-01-09T00:40:31.993Z,98543.06
2023-01-09T00:42:59.296Z,98550.88
2023-01-09T00:45:29.533Z,98547.34
2023-01-09T00:48:03.559Z,98541.34
2023-01-09T00:50:32.624Z,98534.44
2023-01-09T00:53:05.229Z,98539.50
2023-01-09T00:55:35.363Z,98535.66
2023-01-09T00:58:02.658Z,98538.72
2023-01-09T01:00:29.960Z,98536.56
2023-01-09T01:02:57.458Z,98544.53
2023-01-09T01:05:24.880Z,98545.41
2023-01-09T01:07:52.216Z,98547.34
2023-01-09T01:10:21.273Z,98541.19
2023-01-09T01:12:51.022Z,98532.44
2023-01-09T01:15:19.576Z,98536.06
2023-01-09T01:17:47.108Z,98530.38
2023-01-09T01:20:17.513Z,98531.13
2023-01-09T01:22:44.982Z,98532.19
2023-01-09T01:25:13.878Z,98531.72
2023-01-09T01:27:41.455Z,98532.47
2023-01-09T01:30:12.473Z,98543.22
2023-01-09T01:32:40.664Z,98542.44
2023-01-09T01:35:08.912Z,98538.44
2023-01-09T01:37:37.375Z,98548.56
2023-01-09T01:40:06.888Z,98534.38
2023-01-09T01:42:34.308Z,98539.59
2023-01-09T01:45:07.555Z,98558.88
2023-01-09T01:47:42.315Z,98560.28
2023-01-09T01:50:15.665Z,98565.81
2023-01-09T01:52:45.271Z,98544.94
2023-01-09T01:55:12.698Z,98555.22
2023-01-09T01:57:45.110Z,98551.63
2023-01-09T02:00:13.320Z,98551.34
2023-01-09T02:02:42.749Z,98557.34
2023-01-09T02:05:10.225Z,98557.16
2023-01-09T02:07:37.438Z,98550.09
2023-01-09T02:10:05.551Z,98568.72
2023-01-09T02:12:32.837Z,98577.31
2023-01-09T02:15:04.917Z,98561.47
2023-01-09T02:17:50.661Z,98565.78
2023-01-09T02:20:43.455Z,98549.16
2023-01-09T02:23:47.503Z,98541.16
2023-01-09T02:26:35.851Z,98529.13
2023-01-09T02:29:24.919Z,98505.25
2023-01-09T02:31:59.942Z,98484.00
2023-01-09T02:34:36.354Z,98474.19
2023-01-09T02:37:12.385Z,98458.50
2023-01-09T02:39:47.080Z,98472.44
2023-01-09T02:42:19.673Z,98473.41
2023-01-09T02:44:47.279Z,98457.75
2023-01-09T02:47:38.368Z,98448.66
2023-01-09T02:50:09.503Z,98424.97
2023-01-09T02:52:57.676Z,98429.88
2023-01-09T02:55:37.418Z,98410.94
2023-01-09T02:58:10.049Z,98383.56
2023-01-09T03:00:50.511Z,98374.28
2023-01-09T03:03:23.723Z,98360.19
2023-01-09T03:05:56.382Z,98347.56
2023-01-09T03:08:29.609Z,98347.97
2023-01-09T03:11:01.050Z,98359.03
2023-01-09T03:13:31.372Z,98381.47
2023-01-09T03:16:01.534Z,98389.00
2023-01-09T03:18:33.208Z,98376.78
2023-01-09T03:21:01.113Z,98387.38
2023-01-09T03:23:28.384Z,98415.75
2023-01-09T03:25:55.592Z,98440.00
2023-01-09T03:28:27.807Z,98466.94
2023-01-09T03:30:55.526Z,98482.03
2023-01-09T03:33:22.767Z,98493.22
2023-01-09T03:35:51.448Z,98490.44
2023-01-09T03:38:18.715Z,98512.00
2023-01-09T03:40:46.073Z,98528.63
2023-01-09T03:43:13.443Z,98541.44
2023-01-09T03:45:40.884Z,98575.22
2023-01-09T03:48:08.256Z,98592.63
2023-01-09T03:50:35.808Z,98629.41
2023-01-09T03:53:04.488Z,98653.56
2023-01-09T03:55:31.791Z,98685.09
2023-01-09T03:57:59.068Z,98720.34
2023-01-09T04:00:26.545Z,98746.44
2023-01-09T04:02:53.748Z,98764.13
2023-01-09T04:05:21.062Z,98789.25
2023-01-09T04:07:48.404Z,98806.63
2023-01-09T04:10:17.613Z,98831.09
2023-01-09T04:12:44.881Z,98826.63
2023-01-09T04:15:12.249Z,98846.94
2023-01-09T04:17:39.472Z,98862.78
2023-01-09T04:20:07.802Z,98872.66
2023-01-09T04:22:35.177Z,98877.59
2023-01-09T04:25:02.477Z,98877.88
2023-01-09T04:27:31.129Z,98895.44
2023-01-09T04:29:58.416Z,98889.59
2023-01-09T04:32:25.673Z,98916.06
2023-01-09T04:34:52.993Z,98924.84
2023-01-09T04:37:20.587Z,98931.47
2023-01-09T04:39:48.218Z,98958.53
2023-01-09T04:42:15.685Z,98969.16
2023-01-09T04:44:44.401Z,98983.78
2023-01-09T04:47:11.669Z,98994.88
2023-01-09T04:49:38.997Z,98998.84
2023-01-09T04:52:06.698Z,99017.97
2023-01-09T04:54:33.966Z,99028.25
2023-01-09T04:57:01.234Z,99037.03
2023-01-09T04:59:28.526Z,99055.97
2023-01-09T05:01:57.339Z,99072.13
2023-01-09T05:04:24.746Z,99085.66
2023-01-09T05:06:52.107Z,99109.06
2023-01-09T05:09:19.484Z,99119.53
2023-01-09T05:11:46.689Z,99131.53
2023-01-09T05:14:14.082Z,99153.97
2023-01-09T05:16:41.325Z,99165.69
2023-01-09T05:19:10.025Z,99175.72
2023-01-09T05:21:37.383Z,99202.63
2023-01-09T05:24:05.279Z,99196.31
2023-01-09T05:26:32.480Z,99206.75
2023-01-09T05:28:59.761Z,99220.78
2023-01-09T05:31:27.626Z,99240.78
2023-01-09T05:33:55.047Z,99248.75
2023-01-09T05:36:23.669Z,99259.56
2023-01-09T05:38:50.940Z,99272.44
2023-01-09T05:41:18.250Z,99270.59
2023-01-09T05:43:45.873Z,99271.47
2023-01-09T05:46:13.118Z,99280.69
2023-01-09T05:48:40.461Z,99290.56
2023-01-09T05:51:07.759Z,99297.00
2023-01-09T05:53:36.435Z,99297.13
2023-01-09T05:56:03.638Z,99302.94
2023-01-09T05:58:30.987Z,99302.31
2023-01-09T06:00:58.830Z,99299.69
2023-01-09T06:03:26.204Z,99298.69
2023-01-09T06:05:53.585Z,99298.09
2023-01-09T06:08:21.250Z,99311.59
2023-01-09T06:10:49.845Z,99304.97
2023-01-09T06:13:17.116Z,99295.00
2023-01-09T06:15:44.541Z,99303.56
2023-01-09T06:18:11.867Z,99306.91
2023-01-09T06:20:39.129Z,99303.47
2023-01-09T06:23:06.747Z,99311.34
2023-01-09T06:25:33.919Z,99321.00
2023-01-09T06:28:02.610Z,99332.06
2023-01-09T06:30:29.844Z,99323.44
2023-01-09T06:32:57.154Z,99317.25
2023-01-09T06:35:24.365Z,99325.22
2023-01-09T06:37:51.720Z,99323.03
2023-01-09T06:40:19.114Z,99329.13
2023-01-09T06:42:47.416Z,99335.91
2023-01-09T06:45:16.586Z,99342.47
2023-01-09T06:47:43.895Z,99342.34
2023-01-09T06:50:12.368Z,99369.22
2023-01-09T06:52:39.973Z,99359.81
2023-01-09T06:55:08.239Z,99370.88
2023-01-09T06:57:35.595Z,99361.38
2023-01-09T07:00:04.269Z,99353.19
2023-01-09T07:02:32.977Z,99350.44
2023-01-09T07:05:00.237Z,99347.78
2023-01-09T07:07:27.472Z,99347.31
2023-01-09T07:09:54.710Z,99342.69
2023-01-09T07:12:21.992Z,99351.13
2023-01-09T07:14:49.199Z,99338.28
2023-01-09T07:17:16.466Z,99336.88
2023-01-09T07:19:45.121Z,99333.78
2023-01-09T07:22:12.668Z,99330.25
2023-01-09T07:24:39.901Z,99332.69
2023-01-09T07:27:07.147Z,99340.06
2023-01-09T07:29:34.352Z,99341.72
2023-01-09T07:32:01.983Z,99348.28
2023-01-09T07:34:29.241Z,99345.97
2023-01-09T07:36:57.833Z,99360.13
2023-01-09T07:39:25.025Z,99355.78
2023-01-09T07:41:52.315Z,99358.78
2023-01-09T07:44:21.256Z,99370.72
2023-01-09T07:46:48.533Z,99403.13
2023-01-09T07:49:15.822Z,99402.00
2023-01-09T07:51:43.151Z,99421.91
2023-01-09T07:54:12.227Z,99426.34
2023-01-09T07:56:39.549Z,99425.91
2023-01-09T07:59:06.956Z,99424.44
2023-01-09T08:01:34.454Z,99424.44
2023-01-09T08:04:01.795Z,99407.75
2023-01-09T08:06:29.053Z,99397.91
2023-01-09T08:08:56.260Z,99377.22
2023-01-09T08:11:25.519Z,99357.28
2023-01-09T08:13:52.762Z,99333.50
2023-01-09T08:16:20.128Z,99298.19
2023-01-09T08:18:47.355Z,99267.31
2023-01-09T08:21:14.651Z,99211.41
2023-01-09T08:23:41.858Z,99141.81
2023-01-09T08:26:09.109Z,99036.56
2023-01-09T08:28:37.671Z,98929.00
2023-01-09T08:31:05.141Z,98853.38
2023-01-09T08:33:32.446Z,98783.00
2023-01-09T08:35:59.805Z,98710.16
2023-01-09T08:38:27.051Z,98630.25
2023-01-09T08:40:54.444Z,98579.19
2023-01-09T08:43:21.692Z,98553.06
2023-01-09T08:45:50.688Z,98505.84
2023-01-09T08:48:17.899Z,98483.25
2023-01-09T08:50:45.270Z,98443.13
2023-01-09T08:53:12.811Z,98425.28
2023-01-09T08:55:40.161Z,98411.66
2023-01-09T08:58:07.558Z,98408.78
2023-01-09T09:00:34.831Z,98423.69
2023-01-09T09:03:04.192Z,98433.03
2023-01-09T09:05:32.370Z,98380.75
2023-01-09T09:07:59.749Z,98393.94
2023-01-09T09:10:29.373Z,98379.78
2023-01-09T09:12:58.466Z,98446.03
2023-01-09T09:15:26.972Z,98416.31
2023-01-09T09:17:55.815Z,98395.44
2023-01-09T09:20:26.764Z,98381.31
2023-01-09T09:22:54.264Z,98373.47
2023-01-09T09:25:21.605Z,98389.59
2023-01-09T09:27:49.394Z,98386.59
2023-01-09T09:30:18.435Z,98387.06
2023-01-09T09:32:46.290Z,98374.84
2023-01-09T09:35:13.920Z,98378.75
2023-01-09T09:37:42.560Z,98359.59
2023-01-09T09:40:19.145Z,98356.34
2023-01-09T09:43:16.022Z,98352.13
2023-01-09T09:45:51.721Z,98358.56
2023-01-09T09:48:29.209Z,98341.06
2023-01-09T09:51:20.025Z,98334.00
2023-01-09T09:53:57.436Z,98342.19
2023-01-09T09:56:24.954Z,98321.44
2023-01-09T09:58:56.787Z,98317.75
2023-01-09T10:01:31.010Z,98318.97
2023-01-09T10:04:01.376Z,98337.25
2023-01-09T10:06:30.980Z,98330.50
2023-01-09T10:09:06.120Z,98343.31
2023-01-09T10:11:39.595Z,98342.53
2023-01-09T10:14:16.043Z,98340.81
2023-01-09T10:17:08.477Z,98342.03
2023-01-09T10:19:50.658Z,98338.53
2023-01-09T10:22:25.590Z,98333.28
2023-01-09T10:25:06.421Z,98334.78
2023-01-09T10:27:46.294Z,98363.47
2023-01-09T10:30:32.197Z,98364.41
2023-01-09T10:33:11.811Z,98359.44
2023-01-09T10:35:53.994Z,98373.50
2023-01-09T10:38:26.358Z,98357.84
2023-01-09T10:41:01.907Z,98353.94
2023-01-09T10:43:34.179Z,98360.47
2023-01-09T10:46:06.121Z,98374.72
2023-01-09T10:48:35.047Z,98360.47
2023-01-09T10:51:09.812Z,98347.78
2023-01-09T10:53:43.181Z,98363.34
2023-01-09T10:56:19.626Z,98368.53
2023-01-09T10:58:47.175Z,98355.03
2023-01-09T11:01:14.860Z,98373.19
2023-01-09T11:03:42.174Z,98369.75
2023-01-09T11:06:20.748Z,98375.28
2023-01-09T11:08:50.897Z,98378.69
2023-01-09T11:11:32.843Z,98367.16
2023-01-09T11:14:13.504Z,98361.13
2023-01-09T11:16:52.225Z,98367.47
2023-01-09T11:19:19.958Z,98372.78
2023-01-09T11:21:47.225Z,98368.03
2023-01-09T11:24:28.870Z,98357.47
2023-01-09T11:27:17.618Z,98366.28
2023-01-09T11:29:44.959Z,98365.28
2023-01-09T11:32:22.717Z,98360.94
2023-01-09T11:34:50.217Z,98359.53
2023-01-09T11:37:24.660Z,98382.22
2023-01-09T11:39:52.669Z,98377.41
2023-01-09T11:42:23.011Z,98389.19
2023-01-09T11:44:58.240Z,98399.75
2023-01-09T11:47:38.389Z,98404.63
2023-01-09T11:50:17.342Z,98427.00
2023-01-09T11:52:44.712Z,98434.81
2023-01-09T11:55:15.812Z,98434.63
2023-01-09T11:57:44.495Z,98443.72
2023-01-09T12:00:24.599Z,98438.38
2023-01-09T12:03:15.855Z,98434.56
2023-01-09T12:05:51.306Z,98444.22
2023-01-09T12:08:27.943Z,98438.47
2023-01-09T12:11:09.867Z,98458.75
2023-01-09T12:14:00.156Z,98460.09
2023-01-09T12:16:35.713Z,98467.44
2023-01-09T12:19:20.757Z,98453.19
2023-01-09T12:21:59.896Z,98468.81
2023-01-09T12:24:43.128Z,98465.66
2023-01-09T12:27:24.710Z,98489.44
2023-01-09T12:30:15.210Z,98485.72
2023-01-09T12:32:54.931Z,98475.47
2023-01-09T12:35:33.565Z,98508.63
2023-01-09T12:38:31.720Z,98511.22
2023-01-09T12:41:17.826Z,98519.25
2023-01-09T12:43:54.606Z,98517.91
2023-01-09T12:46:24.918Z,98528.34
2023-01-09T12:49:09.466Z,98528.13
2023-01-09T12:51:42.176Z,98520.28
2023-01-09T12:54:15.037Z,98533.50
2023-01-09T12:56:48.955Z,98531.78
2023-01-09T12:59:26.271Z,98546.69
2023-01-09T13:01:59.989Z,98544.47
2023-01-09T13:04:34.198Z,98555.03
2023-01-09T13:07:05.472Z,98545.34
2023-01-09T13:09:39.585Z,98544.78
2023-01-09T13:12:12.501Z,98551.66
2023-01-09T13:14:54.594Z,98551.06
2023-01-09T13:17:29.274Z,98565.63
2023-01-09T13:19:56.538Z,98563.88
2023-01-09T13:22:27.493Z,98575.63
2023-01-09T13:25:20.758Z,98586.44
2023-01-09T13:27:56.009Z,98605.53
2023-01-09T13:30:39.754Z,98598.28
2023-01-09T13:33:18.657Z,98611.06
2023-01-09T13:35:51.409Z,98604.00
2023-01-09T13:38:22.636Z,98621.78
2023-01-09T13:41:04.837Z,98623.53
2023-01-09T13:43:54.260Z,98625.53
2023-01-09T13:46:21.759Z,98627.13
2023-01-09T13:48:50.382Z,98633.91
2023-01-09T13:51:58.533Z,98631.91
2023-01-09T13:55:03.610Z,98627.25
2023-01-09T13:57:34.898Z,98648.41
2023-01-09T14:00:39.590Z,98647.59
2023-01-09T14:03:18.768Z,98661.31
2023-01-09T14:06:17.735Z,98663.66
2023-01-09T14:08:47.673Z,98668.41
2023-01-09T14:11:23.100Z,98676.84
2023-01-09T14:14:03.920Z,98681.63
2023-01-09T14:16:32.136Z,98683.50
2023-01-09T14:19:05.529Z,98708.72
2023-01-09T14:21:50.741Z,98705.03
2023-01-09T14:24:22.734Z,98701.00
2023-01-09T14:26:55.159Z,98720.16
2023-01-09T14:29:43.744Z,98736.78
2023-01-09T14:32:50.413Z,98742.94
2023-01-09T14:35:27.854Z,98754.97
2023-01-09T14:38:28.844Z,98758.22
2023-01-09T14:41:00.749Z,98781.13
2023-01-09T14:43:44.714Z,98783.50
2023-01-09T14:46:14.846Z,98800.13
2023-01-09T14:48:55.564Z,98822.31
2023-01-09T14:51:26.010Z,98832.78
2023-01-09T14:53:55.986Z,98835.09
2023-01-09T14:56:31.523Z,98835.41
2023-01-09T14:59:05.908Z,98838.94
2023-01-09T15:01:34.991Z,98829.81
2023-01-09T15:04:05.703Z,98844.16
2023-01-09T15:06:36.275Z,98843.53
2023-01-09T15:09:08.878Z,98850.97
2023-01-09T15:11:39.682Z,98860.94
2023-01-09T15:14:07.718Z,98860.63
2023-01-09T15:16:35.087Z,98860.94
2023-01-09T15:19:07.531Z,98864.75
2023-01-09T15:21:34.746Z,98850.47
2023-01-09T15:24:20.248Z,98862.47
2023-01-09T15:26:52.702Z,98870.91
2023-01-09T15:29:20.154Z,98868.00
2023-01-09T15:31:52.660Z,98858.94
2023-01-09T15:34:22.243Z,98861.88
2023-01-09T15:36:50.031Z,98866.66
2023-01-09T15:39:22.530Z,98853.84
2023-01-09T15:41:49.882Z,98858.03
2023-01-09T15:44:22.805Z,98856.34
2023-01-09T15:46:50.632Z,98850.50
2023-01-09T15:49:19.198Z,98842.75
2023-01-09T15:51:48.717Z,98854.78
2023-01-09T15:54:19.817Z,98852.63
2023-01-09T15:56:48.395Z,98847.38
2023-01-09T15:59:24.374Z,98825.06
2023-01-09T16:01:58.044Z,98815.63
2023-01-09T16:04:25.896Z,98816.88
2023-01-09T16:06:53.358Z,98823.50
2023-01-09T16:09:26.430Z,98828.31
2023-01-09T16:11:57.754Z,98831.66
2023-01-09T16:14:26.922Z,98832.25
2023-01-09T16:17:01.259Z,98841.50
2023-01-09T16:19:30.841Z,98840.75
2023-01-09T16:21:59.854Z,98840.75
2023-01-09T16:24:28.798Z,98839.06
2023-01-09T16:27:22.544Z,98838.78
2023-01-09T16:29:50.906Z,98851.03
2023-01-09T16:32:20.399Z,98858.47
2023-01-09T16:34:52.017Z,98866.78
2023-01-09T16:37:19.682Z,98868.91
2023-01-09T16:40:25.708Z,98853.69
2023-01-09T16:42:56.457Z,98855.06
2023-01-09T16:45:26.243Z,98854.44
2023-01-09T16:47:53.661Z,98872.63
2023-01-09T16:50:20.993Z,98872.03
2023-01-09T16:52:48.300Z,98886.34
2023-01-09T16:55:15.639Z,98876.00
2023-01-09T16:57:43.076Z,98890.78
2023-01-09T17:00:17.787Z,98898.16
2023-01-09T17:02:45.239Z,98898.00
2023-01-09T17:05:12.500Z,98922.53
2023-01-09T17:07:39.877Z,98923.41
2023-01-09T17:10:19.686Z,98924.34
2023-01-09T17:12:47.080Z,98920.66
2023-01-09T17:15:15.871Z,98929.91
2023-01-09T17:17:43.096Z,98939.16
2023-01-09T17:20:15.338Z,98953.47
2023-01-09T17:22:42.576Z,98943.59
2023-01-09T17:25:13.539Z,98947.63
2023-01-09T17:27:40.853Z,98950.06
2023-01-09T17:30:18.515Z,98951.75
2023-01-09T17:32:48.515Z,98952.69
2023-01-09T17:35:16.611Z,98962.50
2023-01-09T17:37:44.254Z,98983.31
2023-01-09T17:40:18.146Z,98975.44
2023-01-09T17:42:45.448Z,98983.16
2023-01-09T17:45:12.934Z,99006.84
2023-01-09T17:47:40.357Z,99014.22
2023-01-09T17:50:17.842Z,98981.28
2023-01-09T17:52:45.448Z,98974.53
2023-01-09T17:55:12.827Z,98978.66
2023-01-09T17:57:40.900Z,98990.84
2023-01-09T18:00:22.473Z,98977.91
2023-01-09T18:02:49.958Z,99006.06
2023-01-09T18:05:18.585Z,98999.47
2023-01-09T18:07:45.911Z,99007.00
2023-01-09T18:10:14.503Z,99007.31
2023-01-09T18:12:41.947Z,99009.63
2023-01-09T18:15:10.025Z,99005.94
2023-01-09T18:17:37.275Z,98997.31
2023-01-09T18:20:05.340Z,99016.25
2023-01-09T18:22:34.428Z,99025.94
2023-01-09T18:25:01.680Z,99036.09
2023-01-09T18:27:28.995Z,99035.19
2023-01-09T18:29:56.295Z,99030.84
2023-01-09T18:32:24.050Z,99044.69
2023-01-09T18:34:51.234Z,99059.97
2023-01-09T18:37:18.513Z,99054.09
2023-01-09T18:39:47.138Z,99049.03
2023-01-09T18:42:14.384Z,99068.28
2023-01-09T18:44:41.635Z,99060.44
2023-01-09T18:47:08.847Z,99079.19
2023-01-09T18:49:36.098Z,99083.81
2023-01-09T18:52:03.522Z,99099.19
2023-01-09T18:54:30.770Z,99108.28
2023-01-09T18:56:59.336Z,99108.75
2023-01-09T18:59:26.626Z,99121.63
2023-01-09T19:01:53.882Z,99115.06
2023-01-09T19:04:21.123Z,99123.22
2023-01-09T19:06:48.495Z,99126.88
2023-01-09T19:09:15.730Z,99124.75
2023-01-09T19:11:42.952Z,99126.00
2023-01-09T19:14:11.558Z,99142.59
2023-01-09T19:16:38.923Z,99140.13
2023-01-09T19:19:06.201Z,99159.84
2023-01-09T19:21:33.424Z,99154.13
2023-01-09T19:24:00.611Z,99115.34
2023-01-09T19:26:28.619Z,99065.94
2023-01-09T19:28:55.935Z,99038.25
2023-01-09T19:31:26.006Z,99028.53
2023-01-09T19:33:53.446Z,99011.50
2023-01-09T19:36:21.385Z,99010.41
2023-01-09T19:38:48.900Z,99020.09
2023-01-09T19:41:17.804Z,99022.25
2023-01-09T19:43:45.976Z,99024.72
2023-01-09T19:46:15.931Z,99039.94
2023-01-09T19:48:45.952Z,99041.94
2023-01-09T19:51:15.443Z,99041.34
2023-01-09T19:53:43.016Z,99055.63
2023-01-09T19:56:12.340Z,99059.47
2023-01-09T19:58:39.630Z,99059.66
2023-01-09T20:01:12.323Z,99071.34
2023-01-09T20:03:40.491Z,99085.50
2023-01-09T20:06:11.224Z,99089.97
2023-01-09T20:08:38.503Z,99092.91
2023-01-09T20:11:05.756Z,99119.97
2023-01-09T20:13:33.037Z,99117.34
2023-01-09T20:16:01.041Z,99136.44
2023-01-09T20:18:29.218Z,99136.72
2023-01-09T20:20:56.491Z,99145.22
2023-01-09T20:23:26.856Z,99143.66
2023-01-09T20:25:54.899Z,99162.16
2023-01-09T20:28:22.961Z,99157.22
2023-01-09T20:30:51.603Z,99153.06
2023-01-09T20:33:19.985Z,99162.44
2023-01-09T20:35:47.659Z,99169.06
2023-01-09T20:38:15.098Z,99186.00
2023-01-09T20:40:43.976Z,99187.53
2023-01-09T20:43:12.592Z,99192.75
2023-01-09T20:45:40.292Z,99206.31
2023-01-09T20:48:08.299Z,99202.63
2023-01-09T20:50:35.456Z,99208.16
2023-01-09T20:53:03.026Z,99214.34
2023-01-09T20:55:30.370Z,99215.88
2023-01-09T20:57:59.040Z,99232.19
2023-01-09T21:00:26.309Z,99243.91
2023-01-09T21:02:53.859Z,99252.22
2023-01-09T21:05:21.031Z,99258.97
2023-01-09T21:07:48.299Z,99261.13
2023-01-09T21:10:15.964Z,99272.06
2023-01-09T21:12:43.265Z,99279.59
2023-01-09T21:15:12.385Z,99276.03
2023-01-09T21:17:40.291Z,99285.59
2023-01-09T21:20:10.510Z,99283.28
2023-01-09T21:22:38.247Z,99295.25
2023-01-09T21:25:06.613Z,99303.91
2023-01-09T21:27:37.720Z,99326.03
2023-01-09T21:30:06.461Z,99336.28
2023-01-09T21:32:35.135Z,99337.19
2023-01-09T21:35:03.412Z,99348.53
2023-01-09T21:37:31.109Z,99366.06
2023-01-09T21:39:58.470Z,99374.78
2023-01-09T21:42:25.720Z,99386.84
2023-01-09T21:44:52.975Z,99403.25
2023-01-09T21:47:20.215Z,99407.41
2023-01-09T21:49:49.014Z,99411.25
2023-01-09T21:52:16.234Z,99417.44
2023-01-09T21:54:43.568Z,99424.75
2023-01-09T21:57:10.836Z,99444.94
2023-01-09T21:59:38.068Z,99446.91
2023-01-09T22:02:05.338Z,99471.78
2023-01-09T22:04:32.647Z,99459.38
2023-01-09T22:07:01.196Z,99481.00
2023-01-09T22:09:28.450Z,99487.75
2023-01-09T22:11:55.904Z,99505.59
2023-01-09T22:14:23.413Z,99500.06
2023-01-09T22:16:50.700Z,99516.31
2023-01-09T22:19:18.222Z,99524.63
2023-01-09T22:21:45.744Z,99524.50
2023-01-09T22:24:16.781Z,99521.50
2023-01-09T22:26:44.717Z,99532.38
2023-01-09T22:29:11.949Z,99529.69
2023-01-09T22:31:39.769Z,99548.63
2023-01-09T22:34:07.116Z,99549.41
2023-01-09T22:36:37.465Z,99562.59
2023-01-09T22:39:04.745Z,99572.69
2023-01-09T22:41:33.417Z,99585.28
2023-01-09T22:44:00.705Z,99591.72
2023-01-09T22:46:28.005Z,99588.06
2023-01-09T22:48:55.385Z,99597.38
2023-01-09T22:51:23.485Z,99601.13
2023-01-09T22:53:51.102Z,99604.34
2023-01-09T22:56:20.942Z,99621.06
2023-01-09T22:58:52.143Z,99622.38
2023-01-09T23:01:19.990Z,99630.31
2023-01-09T23:03:47.511Z,99635.09
2023-01-09T23:06:16.769Z,99629.47
2023-01-09T23:08:44.274Z,99638.97
2023-01-09T23:11:14.458Z,99638.72
2023-01-09T23:13:41.766Z,99640.41
2023-01-09T23:16:10.487Z,99660.41
2023-01-09T23:18:37.708Z,99664.47
2023-01-09T23:21:05.494Z,99662.16
2023-01-09T23:23:33.073Z,99673.31
2023-01-09T23:26:03.033Z,99676.63
2023-01-09T23:28:30.329Z,99681.59
2023-01-09T23:30:57.874Z,99700.59
2023-01-09T23:33:26.443Z,99703.63
2023-01-09T23:35:53.754Z,99697.56
2023-01-09T23:38:20.948Z,99708.16
2023-01-09T23:40:48.182Z,99703.94
2023-01-09T23:43:15.528Z,99704.47
2023-01-09T23:45:44.607Z,99709.34
2023-01-09T23:48:14.199Z,99724.50
2023-01-09T23:50:47.377Z,99715.13
2023-01-09T23:53:14.749Z,99731.28
2023-01-09T23:55:42.140Z,99720.91
2023-01-09T23:58:09.442Z,99722.81
